sensor_id;sensor_type;location;lat;lon;timestamp;P1;durP1;ratioP1;P2;durP2;ratioP2
16510;SDS011;8368;48.772;8.754;2023-05-20T00:00:51;2.33;;;2.10;;
16510;SDS011;8368;48.772;8.754;2023-05-20T00:03:17;2.10;;;1.73;;
16510;SDS011;8368;48.772;8.754;2023-05-20T00:05:44;1.60;;;1.60;;
16510;SDS011;8368;48.772;8.754;2023-05-20T00:08:09;2.00;;;1.90;;
16510;SDS011;8368;48.772;8.754;2023-05-20T00:10:35;2.17;;;1.73;;
16510;SDS011;8368;48.772;8.754;2023-05-20T00:13:01;1.80;;;1.70;;
16510;SDS011;8368;48.772;8.754;2023-05-20T00:15:27;1.90;;;1.80;;
16510;SDS011;8368;48.772;8.754;2023-05-20T00:17:53;1.83;;;1.73;;
16510;SDS011;8368;48.772;8.754;2023-05-20T00:20:19;2.20;;;2.10;;
16510;SDS011;8368;48.772;8.754;2023-05-20T00:22:45;1.90;;;1.90;;
16510;SDS011;8368;48.772;8.754;2023-05-20T00:25:11;3.00;;;2.80;;
16510;SDS011;8368;48.772;8.754;2023-05-20T00:27:38;2.30;;;2.20;;
16510;SDS011;8368;48.772;8.754;2023-05-20T00:30:04;2.43;;;2.23;;
16510;SDS011;8368;48.772;8.754;2023-05-20T00:32:30;1.90;;;1.90;;
16510;SDS011;8368;48.772;8.754;2023-05-20T00:34:59;2.63;;;2.43;;
16510;SDS011;8368;48.772;8.754;2023-05-20T00:37:25;2.00;;;1.90;;
16510;SDS011;8368;48.772;8.754;2023-05-20T00:39:51;2.10;;;1.90;;
16510;SDS011;8368;48.772;8.754;2023-05-20T00:42:20;2.50;;;2.40;;
16510;SDS011;8368;48.772;8.754;2023-05-20T00:44:49;2.07;;;1.97;;
16510;SDS011;8368;48.772;8.754;2023-05-20T00:47:16;2.20;;;2.10;;
16510;SDS011;8368;48.772;8.754;2023-05-20T00:49:45;3.33;;;2.33;;
16510;SDS011;8368;48.772;8.754;2023-05-20T00:52:12;2.50;;;2.30;;
16510;SDS011;8368;48.772;8.754;2023-05-20T00:54:39;2.33;;;2.20;;
16510;SDS011;8368;48.772;8.754;2023-05-20T00:57:05;2.47;;;2.37;;
16510;SDS011;8368;48.772;8.754;2023-05-20T00:59:31;2.07;;;1.97;;
16510;SDS011;8368;48.772;8.754;2023-05-20T01:01:59;2.20;;;2.10;;
16510;SDS011;8368;48.772;8.754;2023-05-20T01:04:24;2.40;;;2.30;;
16510;SDS011;8368;48.772;8.754;2023-05-20T01:06:50;2.17;;;2.03;;
16510;SDS011;8368;48.772;8.754;2023-05-20T01:09:16;2.43;;;2.33;;
16510;SDS011;8368;48.772;8.754;2023-05-20T01:11:47;2.47;;;2.37;;
16510;SDS011;8368;48.772;8.754;2023-05-20T01:14:18;3.10;;;2.60;;
16510;SDS011;8368;48.772;8.754;2023-05-20T01:16:48;2.50;;;2.00;;
16510;SDS011;8368;48.772;8.754;2023-05-20T01:19:24;2.43;;;2.33;;
16510;SDS011;8368;48.772;8.754;2023-05-20T01:21:57;2.43;;;2.23;;
16510;SDS011;8368;48.772;8.754;2023-05-20T01:24:25;3.13;;;2.63;;
16510;SDS011;8368;48.772;8.754;2023-05-20T01:26:51;2.33;;;2.23;;
16510;SDS011;8368;48.772;8.754;2023-05-20T01:29:16;3.57;;;2.47;;
16510;SDS011;8368;48.772;8.754;2023-05-20T01:31:42;3.33;;;2.13;;
16510;SDS011;8368;48.772;8.754;2023-05-20T01:34:10;3.10;;;2.33;;
16510;SDS011;8368;48.772;8.754;2023-05-20T01:36:36;2.40;;;2.30;;
16510;SDS011;8368;48.772;8.754;2023-05-20T01:39:02;2.73;;;2.53;;
16510;SDS011;8368;48.772;8.754;2023-05-20T01:41:30;2.67;;;2.57;;
16510;SDS011;8368;48.772;8.754;2023-05-20T01:43:58;2.40;;;2.30;;
16510;SDS011;8368;48.772;8.754;2023-05-20T01:46:24;2.57;;;2.47;;
16510;SDS011;8368;48.772;8.754;2023-05-20T01:48:50;2.47;;;2.37;;
16510;SDS011;8368;48.772;8.754;2023-05-20T01:51:15;2.60;;;2.50;;
16510;SDS011;8368;48.772;8.754;2023-05-20T01:53:41;2.23;;;2.17;;
16510;SDS011;8368;48.772;8.754;2023-05-20T01:56:07;2.90;;;2.70;;
16510;SDS011;8368;48.772;8.754;2023-05-20T01:58:32;2.43;;;2.23;;
16510;SDS011;8368;48.772;8.754;2023-05-20T02:00:58;2.40;;;2.30;;
16510;SDS011;8368;48.772;8.754;2023-05-20T02:03:24;2.70;;;2.53;;
16510;SDS011;8368;48.772;8.754;2023-05-20T02:05:49;2.10;;;2.00;;
16510;SDS011;8368;48.772;8.754;2023-05-20T02:08:15;2.17;;;2.07;;
16510;SDS011;8368;48.772;8.754;2023-05-20T02:10:41;2.77;;;2.63;;
16510;SDS011;8368;48.772;8.754;2023-05-20T02:13:06;2.77;;;2.37;;
16510;SDS011;8368;48.772;8.754;2023-05-20T02:15:32;2.23;;;2.13;;
16510;SDS011;8368;48.772;8.754;2023-05-20T02:17:57;2.53;;;2.33;;
16510;SDS011;8368;48.772;8.754;2023-05-20T02:20:23;2.30;;;2.20;;
16510;SDS011;8368;48.772;8.754;2023-05-20T02:22:48;2.67;;;2.57;;
16510;SDS011;8368;48.772;8.754;2023-05-20T02:25:14;2.50;;;2.37;;
16510;SDS011;8368;48.772;8.754;2023-05-20T02:27:40;2.17;;;2.07;;
16510;SDS011;8368;48.772;8.754;2023-05-20T02:30:05;2.70;;;2.57;;
16510;SDS011;8368;48.772;8.754;2023-05-20T02:32:32;2.43;;;2.33;;
16510;SDS011;8368;48.772;8.754;2023-05-20T02:34:57;2.90;;;2.70;;
16510;SDS011;8368;48.772;8.754;2023-05-20T02:37:23;2.23;;;2.13;;
16510;SDS011;8368;48.772;8.754;2023-05-20T02:39:48;2.73;;;2.53;;
16510;SDS011;8368;48.772;8.754;2023-05-20T02:42:14;2.57;;;2.43;;
16510;SDS011;8368;48.772;8.754;2023-05-20T02:44:40;2.87;;;2.67;;
16510;SDS011;8368;48.772;8.754;2023-05-20T02:47:05;2.67;;;2.47;;
16510;SDS011;8368;48.772;8.754;2023-05-20T02:49:31;2.57;;;2.47;;
16510;SDS011;8368;48.772;8.754;2023-05-20T02:51:56;2.70;;;2.50;;
16510;SDS011;8368;48.772;8.754;2023-05-20T02:54:22;2.87;;;2.67;;
16510;SDS011;8368;48.772;8.754;2023-05-20T02:56:47;4.47;;;3.50;;
16510;SDS011;8368;48.772;8.754;2023-05-20T02:59:13;2.43;;;2.33;;
16510;SDS011;8368;48.772;8.754;2023-05-20T03:01:38;3.63;;;3.33;;
16510;SDS011;8368;48.772;8.754;2023-05-20T03:04:04;2.83;;;2.57;;
16510;SDS011;8368;48.772;8.754;2023-05-20T03:06:30;2.53;;;2.33;;
16510;SDS011;8368;48.772;8.754;2023-05-20T03:08:56;2.60;;;2.50;;
16510;SDS011;8368;48.772;8.754;2023-05-20T03:11:22;3.10;;;2.80;;
16510;SDS011;8368;48.772;8.754;2023-05-20T03:13:48;2.70;;;2.50;;
16510;SDS011;8368;48.772;8.754;2023-05-20T03:16:13;3.27;;;3.07;;
16510;SDS011;8368;48.772;8.754;2023-05-20T03:18:40;3.23;;;2.97;;
16510;SDS011;8368;48.772;8.754;2023-05-20T03:21:06;2.90;;;2.70;;
16510;SDS011;8368;48.772;8.754;2023-05-20T03:23:32;2.73;;;2.60;;
16510;SDS011;8368;48.772;8.754;2023-05-20T03:25:57;3.20;;;2.90;;
16510;SDS011;8368;48.772;8.754;2023-05-20T03:28:23;2.70;;;2.60;;
16510;SDS011;8368;48.772;8.754;2023-05-20T03:30:48;2.63;;;2.53;;
16510;SDS011;8368;48.772;8.754;2023-05-20T03:33:14;4.07;;;2.53;;
16510;SDS011;8368;48.772;8.754;2023-05-20T03:35:39;2.63;;;2.53;;
16510;SDS011;8368;48.772;8.754;2023-05-20T03:38:05;2.97;;;2.77;;
16510;SDS011;8368;48.772;8.754;2023-05-20T03:40:31;3.03;;;2.83;;
16510;SDS011;8368;48.772;8.754;2023-05-20T03:42:56;2.77;;;2.57;;
16510;SDS011;8368;48.772;8.754;2023-05-20T03:45:22;3.03;;;2.87;;
16510;SDS011;8368;48.772;8.754;2023-05-20T03:47:47;2.83;;;2.73;;
16510;SDS011;8368;48.772;8.754;2023-05-20T03:50:13;2.40;;;2.30;;
16510;SDS011;8368;48.772;8.754;2023-05-20T03:52:38;2.73;;;2.63;;
16510;SDS011;8368;48.772;8.754;2023-05-20T03:55:05;2.53;;;2.33;;
16510;SDS011;8368;48.772;8.754;2023-05-20T03:57:30;2.90;;;2.73;;
16510;SDS011;8368;48.772;8.754;2023-05-20T03:59:56;2.73;;;2.53;;
16510;SDS011;8368;48.772;8.754;2023-05-20T04:02:22;2.53;;;2.33;;
16510;SDS011;8368;48.772;8.754;2023-05-20T04:04:47;2.70;;;2.50;;
16510;SDS011;8368;48.772;8.754;2023-05-20T04:07:16;2.93;;;2.73;;
16510;SDS011;8368;48.772;8.754;2023-05-20T04:09:42;3.23;;;3.03;;
16510;SDS011;8368;48.772;8.754;2023-05-20T04:12:08;3.33;;;3.03;;
16510;SDS011;8368;48.772;8.754;2023-05-20T04:14:33;2.53;;;2.40;;
16510;SDS011;8368;48.772;8.754;2023-05-20T04:16:59;2.90;;;2.80;;
16510;SDS011;8368;48.772;8.754;2023-05-20T04:19:29;3.00;;;2.80;;
16510;SDS011;8368;48.772;8.754;2023-05-20T04:21:55;3.40;;;3.10;;
16510;SDS011;8368;48.772;8.754;2023-05-20T04:24:21;2.73;;;2.63;;
16510;SDS011;8368;48.772;8.754;2023-05-20T04:26:49;2.53;;;2.40;;
16510;SDS011;8368;48.772;8.754;2023-05-20T04:29:15;2.50;;;2.40;;
16510;SDS011;8368;48.772;8.754;2023-05-20T04:31:42;2.97;;;2.77;;
16510;SDS011;8368;48.772;8.754;2023-05-20T04:34:11;4.57;;;3.20;;
16510;SDS011;8368;48.772;8.754;2023-05-20T04:36:37;2.73;;;2.63;;
16510;SDS011;8368;48.772;8.754;2023-05-20T04:39:03;3.27;;;2.60;;
16510;SDS011;8368;48.772;8.754;2023-05-20T04:41:29;3.03;;;2.83;;
16510;SDS011;8368;48.772;8.754;2023-05-20T04:43:55;2.53;;;2.43;;
16510;SDS011;8368;48.772;8.754;2023-05-20T04:46:24;2.90;;;2.70;;
16510;SDS011;8368;48.772;8.754;2023-05-20T04:48:50;3.23;;;2.93;;
16510;SDS011;8368;48.772;8.754;2023-05-20T04:51:16;2.63;;;2.40;;
16510;SDS011;8368;48.772;8.754;2023-05-20T04:53:42;2.90;;;2.70;;
16510;SDS011;8368;48.772;8.754;2023-05-20T04:56:09;3.40;;;3.13;;
16510;SDS011;8368;48.772;8.754;2023-05-20T04:58:35;3.20;;;3.00;;
16510;SDS011;8368;48.772;8.754;2023-05-20T05:01:00;2.70;;;2.60;;
16510;SDS011;8368;48.772;8.754;2023-05-20T05:03:26;2.90;;;2.70;;
16510;SDS011;8368;48.772;8.754;2023-05-20T05:05:56;5.37;;;3.13;;
16510;SDS011;8368;48.772;8.754;2023-05-20T05:08:22;2.53;;;2.40;;
16510;SDS011;8368;48.772;8.754;2023-05-20T05:10:48;3.27;;;2.67;;
16510;SDS011;8368;48.772;8.754;2023-05-20T05:13:13;2.97;;;2.80;;
16510;SDS011;8368;48.772;8.754;2023-05-20T05:15:39;4.17;;;3.87;;
16510;SDS011;8368;48.772;8.754;2023-05-20T05:18:04;3.57;;;3.30;;
16510;SDS011;8368;48.772;8.754;2023-05-20T05:20:30;3.27;;;3.03;;
16510;SDS011;8368;48.772;8.754;2023-05-20T05:22:55;2.97;;;2.83;;
16510;SDS011;8368;48.772;8.754;2023-05-20T05:25:21;4.10;;;3.70;;
16510;SDS011;8368;48.772;8.754;2023-05-20T05:27:47;5.53;;;5.03;;
16510;SDS011;8368;48.772;8.754;2023-05-20T05:30:15;3.90;;;3.57;;
16510;SDS011;8368;48.772;8.754;2023-05-20T05:32:41;3.50;;;3.30;;
16510;SDS011;8368;48.772;8.754;2023-05-20T05:35:07;2.83;;;2.70;;
16510;SDS011;8368;48.772;8.754;2023-05-20T05:37:32;3.30;;;3.03;;
16510;SDS011;8368;48.772;8.754;2023-05-20T05:39:58;5.23;;;4.87;;
16510;SDS011;8368;48.772;8.754;2023-05-20T05:42:24;3.57;;;3.33;;
16510;SDS011;8368;48.772;8.754;2023-05-20T05:44:49;3.70;;;3.47;;
16510;SDS011;8368;48.772;8.754;2023-05-20T05:47:15;3.20;;;3.00;;
16510;SDS011;8368;48.772;8.754;2023-05-20T05:49:41;3.60;;;3.30;;
16510;SDS011;8368;48.772;8.754;2023-05-20T05:52:06;4.27;;;3.87;;
16510;SDS011;8368;48.772;8.754;2023-05-20T05:54:32;3.17;;;2.97;;
16510;SDS011;8368;48.772;8.754;2023-05-20T05:56:57;3.63;;;3.10;;
16510;SDS011;8368;48.772;8.754;2023-05-20T05:59:23;3.10;;;2.90;;
16510;SDS011;8368;48.772;8.754;2023-05-20T06:01:48;3.80;;;3.60;;
16510;SDS011;8368;48.772;8.754;2023-05-20T06:04:14;3.83;;;3.60;;
16510;SDS011;8368;48.772;8.754;2023-05-20T06:06:40;3.20;;;3.00;;
16510;SDS011;8368;48.772;8.754;2023-05-20T06:09:05;3.07;;;2.50;;
16510;SDS011;8368;48.772;8.754;2023-05-20T06:11:31;2.97;;;2.80;;
16510;SDS011;8368;48.772;8.754;2023-05-20T06:13:56;3.10;;;2.90;;
16510;SDS011;8368;48.772;8.754;2023-05-20T06:16:22;2.93;;;2.73;;
16510;SDS011;8368;48.772;8.754;2023-05-20T06:18:48;2.67;;;2.58;;
16510;SDS011;8368;48.772;8.754;2023-05-20T06:21:14;2.78;;;2.65;;
16510;SDS011;8368;48.772;8.754;2023-05-20T06:23:40;2.85;;;2.72;;
16510;SDS011;8368;48.772;8.754;2023-05-20T06:26:05;3.08;;;2.88;;
16510;SDS011;8368;48.772;8.754;2023-05-20T06:28:31;3.10;;;2.90;;
16510;SDS011;8368;48.772;8.754;2023-05-20T06:30:56;2.95;;;2.75;;
16510;SDS011;8368;48.772;8.754;2023-05-20T06:33:22;2.72;;;2.47;;
16510;SDS011;8368;48.772;8.754;2023-05-20T06:35:50;3.20;;;2.97;;
16510;SDS011;8368;48.772;8.754;2023-05-20T06:38:16;2.85;;;2.65;;
16510;SDS011;8368;48.772;8.754;2023-05-20T06:40:41;3.53;;;3.25;;
16510;SDS011;8368;48.772;8.754;2023-05-20T06:43:07;3.20;;;3.00;;
16510;SDS011;8368;48.772;8.754;2023-05-20T06:45:32;3.58;;;3.20;;
16510;SDS011;8368;48.772;8.754;2023-05-20T06:47:58;3.33;;;3.13;;
16510;SDS011;8368;48.772;8.754;2023-05-20T06:50:24;3.05;;;2.95;;
16510;SDS011;8368;48.772;8.754;2023-05-20T06:52:49;3.30;;;3.10;;
16510;SDS011;8368;48.772;8.754;2023-05-20T06:55:15;2.95;;;2.75;;
16510;SDS011;8368;48.772;8.754;2023-05-20T06:57:41;3.28;;;3.08;;
16510;SDS011;8368;48.772;8.754;2023-05-20T07:00:06;3.15;;;2.92;;
16510;SDS011;8368;48.772;8.754;2023-05-20T07:02:33;3.10;;;2.90;;
16510;SDS011;8368;48.772;8.754;2023-05-20T07:04:58;2.38;;;2.28;;
16510;SDS011;8368;48.772;8.754;2023-05-20T07:07:24;3.38;;;3.13;;
16510;SDS011;8368;48.772;8.754;2023-05-20T07:09:49;3.28;;;3.03;;
16510;SDS011;8368;48.772;8.754;2023-05-20T07:12:15;3.42;;;3.22;;
16510;SDS011;8368;48.772;8.754;2023-05-20T07:14:41;3.25;;;3.05;;
16510;SDS011;8368;48.772;8.754;2023-05-20T07:17:06;3.22;;;3.03;;
16510;SDS011;8368;48.772;8.754;2023-05-20T07:19:32;3.65;;;3.35;;
16510;SDS011;8368;48.772;8.754;2023-05-20T07:21:58;3.40;;;3.10;;
16510;SDS011;8368;48.772;8.754;2023-05-20T07:24:24;3.40;;;3.20;;
16510;SDS011;8368;48.772;8.754;2023-05-20T07:26:49;3.38;;;3.08;;
16510;SDS011;8368;48.772;8.754;2023-05-20T07:29:15;3.65;;;3.40;;
16510;SDS011;8368;48.772;8.754;2023-05-20T07:31:40;3.65;;;3.40;;
16510;SDS011;8368;48.772;8.754;2023-05-20T07:34:06;3.30;;;3.10;;
16510;SDS011;8368;48.772;8.754;2023-05-20T07:36:32;3.67;;;3.38;;
16510;SDS011;8368;48.772;8.754;2023-05-20T07:38:57;3.83;;;3.53;;
16510;SDS011;8368;48.772;8.754;2023-05-20T07:41:23;3.97;;;3.67;;
16510;SDS011;8368;48.772;8.754;2023-05-20T07:43:48;3.72;;;3.45;;
16510;SDS011;8368;48.772;8.754;2023-05-20T07:46:14;4.13;;;3.83;;
16510;SDS011;8368;48.772;8.754;2023-05-20T07:48:40;3.83;;;3.58;;
16510;SDS011;8368;48.772;8.754;2023-05-20T07:51:06;3.63;;;3.33;;
16510;SDS011;8368;48.772;8.754;2023-05-20T07:53:31;3.15;;;2.95;;
16510;SDS011;8368;48.772;8.754;2023-05-20T07:55:57;3.70;;;3.50;;
16510;SDS011;8368;48.772;8.754;2023-05-20T07:58:23;4.38;;;4.07;;
16510;SDS011;8368;48.772;8.754;2023-05-20T08:00:49;3.38;;;3.17;;
16510;SDS011;8368;48.772;8.754;2023-05-20T08:03:15;3.83;;;3.53;;
16510;SDS011;8368;48.772;8.754;2023-05-20T08:05:41;3.67;;;3.47;;
16510;SDS011;8368;48.772;8.754;2023-05-20T08:08:06;3.50;;;3.20;;
16510;SDS011;8368;48.772;8.754;2023-05-20T08:10:34;3.72;;;3.53;;
16510;SDS011;8368;48.772;8.754;2023-05-20T08:13:00;3.40;;;3.20;;
16510;SDS011;8368;48.772;8.754;2023-05-20T08:15:25;3.63;;;3.38;;
16510;SDS011;8368;48.772;8.754;2023-05-20T08:17:51;3.75;;;3.47;;
16510;SDS011;8368;48.772;8.754;2023-05-20T08:20:16;3.97;;;3.67;;
16510;SDS011;8368;48.772;8.754;2023-05-20T08:22:42;3.42;;;3.22;;
16510;SDS011;8368;48.772;8.754;2023-05-20T08:25:08;3.88;;;3.58;;
16510;SDS011;8368;48.772;8.754;2023-05-20T08:27:34;3.97;;;3.72;;
16510;SDS011;8368;48.772;8.754;2023-05-20T08:30:01;3.53;;;3.22;;
16510;SDS011;8368;48.772;8.754;2023-05-20T08:32:27;3.90;;;3.60;;
16510;SDS011;8368;48.772;8.754;2023-05-20T08:34:53;3.75;;;3.55;;
16510;SDS011;8368;48.772;8.754;2023-05-20T08:37:18;3.90;;;3.60;;
16510;SDS011;8368;48.772;8.754;2023-05-20T08:39:44;3.92;;;3.63;;
16510;SDS011;8368;48.772;8.754;2023-05-20T08:42:12;3.72;;;3.42;;
16510;SDS011;8368;48.772;8.754;2023-05-20T08:44:37;3.88;;;3.58;;
16510;SDS011;8368;48.772;8.754;2023-05-20T08:47:05;3.75;;;3.55;;
16510;SDS011;8368;48.772;8.754;2023-05-20T08:49:32;3.45;;;3.22;;
16510;SDS011;8368;48.772;8.754;2023-05-20T08:51:59;3.20;;;3.00;;
16510;SDS011;8368;48.772;8.754;2023-05-20T08:54:25;3.60;;;3.40;;
16510;SDS011;8368;48.772;8.754;2023-05-20T08:57:08;3.95;;;3.65;;
16510;SDS011;8368;48.772;8.754;2023-05-20T08:59:34;4.05;;;3.35;;
16510;SDS011;8368;48.772;8.754;2023-05-20T09:02:00;3.60;;;3.30;;
16510;SDS011;8368;48.772;8.754;2023-05-20T09:04:26;3.03;;;2.92;;
16510;SDS011;8368;48.772;8.754;2023-05-20T09:06:52;4.00;;;3.70;;
16510;SDS011;8368;48.772;8.754;2023-05-20T09:09:19;3.55;;;3.35;;
16510;SDS011;8368;48.772;8.754;2023-05-20T09:11:44;3.80;;;3.42;;
16510;SDS011;8368;48.772;8.754;2023-05-20T09:14:10;3.33;;;3.08;;
16510;SDS011;8368;48.772;8.754;2023-05-20T09:16:35;3.78;;;3.47;;
16510;SDS011;8368;48.772;8.754;2023-05-20T09:19:04;3.90;;;3.60;;
16510;SDS011;8368;48.772;8.754;2023-05-20T09:21:30;3.72;;;3.45;;
16510;SDS011;8368;48.772;8.754;2023-05-20T09:23:56;3.53;;;3.33;;
16510;SDS011;8368;48.772;8.754;2023-05-20T09:26:26;3.53;;;3.33;;
16510;SDS011;8368;48.772;8.754;2023-05-20T09:28:55;4.47;;;4.07;;
16510;SDS011;8368;48.772;8.754;2023-05-20T09:31:24;3.88;;;3.63;;
16510;SDS011;8368;48.772;8.754;2023-05-20T09:33:59;4.50;;;3.83;;
16510;SDS011;8368;48.772;8.754;2023-05-20T09:36:27;3.88;;;3.58;;
16510;SDS011;8368;48.772;8.754;2023-05-20T09:38:54;3.53;;;3.33;;
16510;SDS011;8368;48.772;8.754;2023-05-20T09:41:23;3.90;;;3.60;;
16510;SDS011;8368;48.772;8.754;2023-05-20T09:43:52;3.40;;;3.20;;
16510;SDS011;8368;48.772;8.754;2023-05-20T09:46:18;3.97;;;3.60;;
16510;SDS011;8368;48.772;8.754;2023-05-20T09:48:45;4.20;;;3.90;;
16510;SDS011;8368;48.772;8.754;2023-05-20T09:51:10;4.30;;;4.00;;
16510;SDS011;8368;48.772;8.754;2023-05-20T09:53:37;3.97;;;3.67;;
16510;SDS011;8368;48.772;8.754;2023-05-20T09:56:03;3.35;;;3.15;;
16510;SDS011;8368;48.772;8.754;2023-05-20T09:58:28;4.15;;;3.85;;
16510;SDS011;8368;48.772;8.754;2023-05-20T10:00:55;3.45;;;3.17;;
16510;SDS011;8368;48.772;8.754;2023-05-20T10:03:21;3.55;;;3.25;;
16510;SDS011;8368;48.772;8.754;2023-05-20T10:05:56;3.53;;;3.22;;
16510;SDS011;8368;48.772;8.754;2023-05-20T10:08:49;3.35;;;3.15;;
16510;SDS011;8368;48.772;8.754;2023-05-20T10:14:39;3.28;;;3.10;;
16510;SDS011;8368;48.772;8.754;2023-05-20T10:17:27;3.30;;;3.03;;
16510;SDS011;8368;48.772;8.754;2023-05-20T10:20:01;3.75;;;3.50;;
16510;SDS011;8368;48.772;8.754;2023-05-20T10:22:28;3.72;;;3.53;;
16510;SDS011;8368;48.772;8.754;2023-05-20T10:24:59;4.03;;;3.70;;
16510;SDS011;8368;48.772;8.754;2023-05-20T10:27:28;3.45;;;3.13;;
16510;SDS011;8368;48.772;8.754;2023-05-20T10:29:56;3.38;;;3.17;;
16510;SDS011;8368;48.772;8.754;2023-05-20T10:32:28;3.65;;;3.40;;
16510;SDS011;8368;48.772;8.754;2023-05-20T10:35:02;3.45;;;3.25;;
16510;SDS011;8368;48.772;8.754;2023-05-20T10:37:30;3.50;;;3.22;;
16510;SDS011;8368;48.772;8.754;2023-05-20T10:40:02;2.95;;;2.85;;
16510;SDS011;8368;48.772;8.754;2023-05-20T10:42:32;3.35;;;3.05;;
16510;SDS011;8368;48.772;8.754;2023-05-20T10:44:57;3.28;;;3.08;;
16510;SDS011;8368;48.772;8.754;2023-05-20T10:47:23;3.97;;;3.22;;
16510;SDS011;8368;48.772;8.754;2023-05-20T10:49:48;3.28;;;3.08;;
16510;SDS011;8368;48.772;8.754;2023-05-20T10:52:17;4.13;;;3.83;;
16510;SDS011;8368;48.772;8.754;2023-05-20T10:54:46;2.95;;;2.78;;
16510;SDS011;8368;48.772;8.754;2023-05-20T10:57:22;3.60;;;3.30;;
16510;SDS011;8368;48.772;8.754;2023-05-20T10:59:48;3.40;;;3.20;;
16510;SDS011;8368;48.772;8.754;2023-05-20T11:02:15;2.72;;;2.63;;
16510;SDS011;8368;48.772;8.754;2023-05-20T11:04:42;3.60;;;3.30;;
16510;SDS011;8368;48.772;8.754;2023-05-20T11:07:08;3.47;;;3.22;;
16510;SDS011;8368;48.772;8.754;2023-05-20T11:09:33;3.47;;;3.22;;
16510;SDS011;8368;48.772;8.754;2023-05-20T11:12:00;3.58;;;3.25;;
16510;SDS011;8368;48.772;8.754;2023-05-20T11:14:28;3.92;;;3.15;;
16510;SDS011;8368;48.772;8.754;2023-05-20T11:16:55;3.15;;;2.95;;
16510;SDS011;8368;48.772;8.754;2023-05-20T11:19:22;3.67;;;3.28;;
16510;SDS011;8368;48.772;8.754;2023-05-20T11:21:48;3.28;;;3.08;;
16510;SDS011;8368;48.772;8.754;2023-05-20T11:24:13;3.50;;;2.88;;
16510;SDS011;8368;48.772;8.754;2023-05-20T11:26:47;2.72;;;2.63;;
16510;SDS011;8368;48.772;8.754;2023-05-20T11:29:12;2.65;;;2.55;;
16510;SDS011;8368;48.772;8.754;2023-05-20T11:31:38;2.72;;;2.53;;
16510;SDS011;8368;48.772;8.754;2023-05-20T11:34:03;3.13;;;2.92;;
16510;SDS011;8368;48.772;8.754;2023-05-20T11:36:29;3.17;;;2.88;;
16510;SDS011;8368;48.772;8.754;2023-05-20T11:38:58;2.92;;;2.83;;
16510;SDS011;8368;48.772;8.754;2023-05-20T11:41:24;3.08;;;2.88;;
16510;SDS011;8368;48.772;8.754;2023-05-20T11:44:00;3.60;;;3.40;;
16510;SDS011;8368;48.772;8.754;2023-05-20T11:46:26;2.80;;;2.70;;
16510;SDS011;8368;48.772;8.754;2023-05-20T11:48:52;3.20;;;3.00;;
16510;SDS011;8368;48.772;8.754;2023-05-20T11:51:28;3.78;;;3.47;;
16510;SDS011;8368;48.772;8.754;2023-05-20T11:54:04;3.20;;;3.00;;
16510;SDS011;8368;48.772;8.754;2023-05-20T11:56:34;3.55;;;3.35;;
16510;SDS011;8368;48.772;8.754;2023-05-20T11:59:01;3.63;;;3.40;;
16510;SDS011;8368;48.772;8.754;2023-05-20T12:01:34;3.42;;;3.33;;
16510;SDS011;8368;48.772;8.754;2023-05-20T12:04:07;3.55;;;2.95;;
16510;SDS011;8368;48.772;8.754;2023-05-20T12:06:33;3.03;;;2.83;;
16510;SDS011;8368;48.772;8.754;2023-05-20T12:09:01;3.38;;;3.17;;
16510;SDS011;8368;48.772;8.754;2023-05-20T12:11:31;3.58;;;3.35;;
16510;SDS011;8368;48.772;8.754;2023-05-20T12:14:08;3.08;;;2.83;;
16510;SDS011;8368;48.772;8.754;2023-05-20T12:16:34;3.17;;;3.03;;
16510;SDS011;8368;48.772;8.754;2023-05-20T12:19:00;3.58;;;3.38;;
16510;SDS011;8368;48.772;8.754;2023-05-20T12:21:27;2.95;;;2.75;;
16510;SDS011;8368;48.772;8.754;2023-05-20T12:23:53;3.30;;;3.10;;
16510;SDS011;8368;48.772;8.754;2023-05-20T12:26:24;3.20;;;3.10;;
16510;SDS011;8368;48.772;8.754;2023-05-20T12:28:51;3.05;;;2.95;;
16510;SDS011;8368;48.772;8.754;2023-05-20T12:31:17;3.38;;;3.17;;
16510;SDS011;8368;48.772;8.754;2023-05-20T12:33:42;3.50;;;3.22;;
16510;SDS011;8368;48.772;8.754;2023-05-20T12:36:08;3.33;;;3.17;;
16510;SDS011;8368;48.772;8.754;2023-05-20T12:38:34;3.97;;;3.72;;
16510;SDS011;8368;48.772;8.754;2023-05-20T12:41:00;3.88;;;3.58;;
16510;SDS011;8368;48.772;8.754;2023-05-20T12:43:25;4.18;;;3.88;;
16510;SDS011;8368;48.772;8.754;2023-05-20T12:45:51;3.20;;;3.00;;
16510;SDS011;8368;48.772;8.754;2023-05-20T12:48:17;2.97;;;2.78;;
16510;SDS011;8368;48.772;8.754;2023-05-20T12:50:43;3.38;;;3.17;;
16510;SDS011;8368;48.772;8.754;2023-05-20T12:53:08;2.83;;;2.72;;
16510;SDS011;8368;48.772;8.754;2023-05-20T12:55:34;3.10;;;2.90;;
16510;SDS011;8368;48.772;8.754;2023-05-20T12:57:59;2.85;;;2.72;;
16510;SDS011;8368;48.772;8.754;2023-05-20T13:00:25;3.38;;;3.20;;
16510;SDS011;8368;48.772;8.754;2023-05-20T13:02:50;7.30;;;3.60;;
16510;SDS011;8368;48.772;8.754;2023-05-20T13:05:16;3.13;;;2.97;;
16510;SDS011;8368;48.772;8.754;2023-05-20T13:07:42;2.85;;;2.75;;
16510;SDS011;8368;48.772;8.754;2023-05-20T13:10:08;3.20;;;3.00;;
16510;SDS011;8368;48.772;8.754;2023-05-20T13:12:35;3.17;;;3.08;;
16510;SDS011;8368;48.772;8.754;2023-05-20T13:15:00;3.00;;;2.90;;
16510;SDS011;8368;48.772;8.754;2023-05-20T13:17:27;2.88;;;2.67;;
16510;SDS011;8368;48.772;8.754;2023-05-20T13:19:52;2.97;;;2.88;;
16510;SDS011;8368;48.772;8.754;2023-05-20T13:22:18;3.13;;;3.00;;
16510;SDS011;8368;48.772;8.754;2023-05-20T13:24:44;2.80;;;2.70;;
16510;SDS011;8368;48.772;8.754;2023-05-20T13:27:10;3.70;;;2.67;;
16510;SDS011;8368;48.772;8.754;2023-05-20T13:29:35;2.95;;;2.75;;
16510;SDS011;8368;48.772;8.754;2023-05-20T13:32:01;2.72;;;2.63;;
16510;SDS011;8368;48.772;8.754;2023-05-20T13:34:28;2.45;;;2.35;;
16510;SDS011;8368;48.772;8.754;2023-05-20T13:36:54;2.70;;;2.60;;
16510;SDS011;8368;48.772;8.754;2023-05-20T13:39:20;2.70;;;2.53;;
16510;SDS011;8368;48.772;8.754;2023-05-20T13:41:45;2.55;;;2.45;;
16510;SDS011;8368;48.772;8.754;2023-05-20T13:44:11;2.72;;;2.63;;
16510;SDS011;8368;48.772;8.754;2023-05-20T13:46:36;3.08;;;2.90;;
16510;SDS011;8368;48.772;8.754;2023-05-20T13:49:02;2.45;;;2.35;;
16510;SDS011;8368;48.772;8.754;2023-05-20T13:51:28;2.70;;;2.60;;
16510;SDS011;8368;48.772;8.754;2023-05-20T13:53:55;3.10;;;2.90;;
16510;SDS011;8368;48.772;8.754;2023-05-20T13:56:21;3.13;;;2.88;;
16510;SDS011;8368;48.772;8.754;2023-05-20T13:58:47;2.92;;;2.83;;
16510;SDS011;8368;48.772;8.754;2023-05-20T14:01:12;3.30;;;3.10;;
16510;SDS011;8368;48.772;8.754;2023-05-20T14:03:39;2.80;;;2.60;;
16510;SDS011;8368;48.772;8.754;2023-05-20T14:06:05;3.17;;;3.00;;
16510;SDS011;8368;48.772;8.754;2023-05-20T14:08:31;2.95;;;2.78;;
16510;SDS011;8368;48.772;8.754;2023-05-20T14:10:57;3.40;;;3.20;;
16510;SDS011;8368;48.772;8.754;2023-05-20T14:13:23;3.05;;;2.85;;
16510;SDS011;8368;48.772;8.754;2023-05-20T14:15:49;2.92;;;2.83;;
16510;SDS011;8368;48.772;8.754;2023-05-20T14:18:18;3.08;;;2.88;;
16510;SDS011;8368;48.772;8.754;2023-05-20T14:20:44;2.80;;;2.70;;
16510;SDS011;8368;48.772;8.754;2023-05-20T14:23:10;3.10;;;2.90;;
16510;SDS011;8368;48.772;8.754;2023-05-20T14:25:36;3.40;;;3.20;;
16510;SDS011;8368;48.772;8.754;2023-05-20T14:28:02;3.42;;;3.25;;
16510;SDS011;8368;48.772;8.754;2023-05-20T14:30:28;3.42;;;3.28;;
16510;SDS011;8368;48.772;8.754;2023-05-20T14:32:53;3.00;;;2.90;;
16510;SDS011;8368;48.772;8.754;2023-05-20T14:35:19;3.33;;;3.13;;
16510;SDS011;8368;48.772;8.754;2023-05-20T14:37:45;3.08;;;2.88;;
16510;SDS011;8368;48.772;8.754;2023-05-20T14:40:10;3.60;;;3.40;;
16510;SDS011;8368;48.772;8.754;2023-05-20T14:42:36;5.68;;;3.55;;
16510;SDS011;8368;48.772;8.754;2023-05-20T14:45:02;2.95;;;2.83;;
16510;SDS011;8368;48.772;8.754;2023-05-20T14:47:28;3.20;;;3.00;;
16510;SDS011;8368;48.772;8.754;2023-05-20T14:49:54;2.88;;;2.78;;
16510;SDS011;8368;48.772;8.754;2023-05-20T14:52:20;3.20;;;3.05;;
16510;SDS011;8368;48.772;8.754;2023-05-20T14:54:46;3.00;;;2.90;;
16510;SDS011;8368;48.772;8.754;2023-05-20T14:57:12;2.75;;;2.65;;
16510;SDS011;8368;48.772;8.754;2023-05-20T14:59:37;3.10;;;2.90;;